sensor_id;sensor_type;location;lat;lon;timestamp;P1;durP1;ratioP1;P2;durP2;ratioP2
17784;SDS011;9016;53.582;10.062;2023-03-16T00:00:19;12.10;;;4.93;;
17784;SDS011;9016;53.582;10.062;2023-03-16T00:02:49;14.37;;;5.43;;
17784;SDS011;9016;53.582;10.062;2023-03-16T00:05:17;14.60;;;5.03;;
17784;SDS011;9016;53.582;10.062;2023-03-16T00:07:45;13.40;;;5.23;;
17784;SDS011;9016;53.582;10.062;2023-03-16T00:10:14;13.03;;;4.97;;
17784;SDS011;9016;53.582;10.062;2023-03-16T00:12:42;13.10;;;5.20;;
17784;SDS011;9016;53.582;10.062;2023-03-16T00:15:10;14.17;;;5.43;;
17784;SDS011;9016;53.582;10.062;2023-03-16T00:17:38;14.07;;;5.60;;
17784;SDS011;9016;53.582;10.062;2023-03-16T00:20:08;13.00;;;5.30;;
17784;SDS011;9016;53.582;10.062;2023-03-16T00:22:37;15.53;;;5.40;;
17784;SDS011;9016;53.582;10.062;2023-03-16T00:25:05;14.20;;;4.90;;
17784;SDS011;9016;53.582;10.062;2023-03-16T00:27:34;16.13;;;5.30;;
17784;SDS011;9016;53.582;10.062;2023-03-16T00:30:02;11.60;;;5.00;;
17784;SDS011;9016;53.582;10.062;2023-03-16T00:32:32;13.23;;;5.07;;
17784;SDS011;9016;53.582;10.062;2023-03-16T00:35:03;11.20;;;4.93;;
17784;SDS011;9016;53.582;10.062;2023-03-16T00:37:36;14.23;;;5.47;;
17784;SDS011;9016;53.582;10.062;2023-03-16T00:40:05;12.60;;;5.13;;
17784;SDS011;9016;53.582;10.062;2023-03-16T00:42:35;11.17;;;5.23;;
17784;SDS011;9016;53.582;10.062;2023-03-16T00:45:03;11.97;;;4.77;;
17784;SDS011;9016;53.582;10.062;2023-03-16T00:47:32;10.93;;;5.37;;
17784;SDS011;9016;53.582;10.062;2023-03-16T00:50:01;13.73;;;5.80;;
17784;SDS011;9016;53.582;10.062;2023-03-16T00:52:29;12.03;;;5.90;;
17784;SDS011;9016;53.582;10.062;2023-03-16T00:54:58;12.60;;;5.60;;
17784;SDS011;9016;53.582;10.062;2023-03-16T00:57:28;14.70;;;5.57;;
17784;SDS011;9016;53.582;10.062;2023-03-16T00:59:57;10.17;;;4.97;;
17784;SDS011;9016;53.582;10.062;2023-03-16T01:02:25;11.10;;;5.63;;
17784;SDS011;9016;53.582;10.062;2023-03-16T01:04:53;12.93;;;5.23;;
17784;SDS011;9016;53.582;10.062;2023-03-16T01:07:21;11.57;;;5.67;;
17784;SDS011;9016;53.582;10.062;2023-03-16T01:09:49;12.17;;;5.73;;
17784;SDS011;9016;53.582;10.062;2023-03-16T01:12:19;11.27;;;5.10;;
17784;SDS011;9016;53.582;10.062;2023-03-16T01:14:47;12.53;;;5.93;;
17784;SDS011;9016;53.582;10.062;2023-03-16T01:17:15;12.50;;;5.63;;
17784;SDS011;9016;53.582;10.062;2023-03-16T01:19:44;13.00;;;5.77;;
17784;SDS011;9016;53.582;10.062;2023-03-16T01:22:13;11.67;;;5.90;;
17784;SDS011;9016;53.582;10.062;2023-03-16T01:24:43;10.73;;;5.40;;
17784;SDS011;9016;53.582;10.062;2023-03-16T01:27:12;11.47;;;5.50;;
17784;SDS011;9016;53.582;10.062;2023-03-16T01:29:42;10.27;;;5.23;;
17784;SDS011;9016;53.582;10.062;2023-03-16T01:32:10;13.77;;;5.13;;
17784;SDS011;9016;53.582;10.062;2023-03-16T01:34:39;10.07;;;4.93;;
17784;SDS011;9016;53.582;10.062;2023-03-16T01:37:07;7.13;;;4.80;;
17784;SDS011;9016;53.582;10.062;2023-03-16T01:39:35;8.40;;;4.87;;
17784;SDS011;9016;53.582;10.062;2023-03-16T01:42:03;10.17;;;4.90;;
17784;SDS011;9016;53.582;10.062;2023-03-16T01:47:20;10.70;;;4.93;;
17784;SDS011;9016;53.582;10.062;2023-03-16T01:49:49;9.13;;;4.63;;
17784;SDS011;9016;53.582;10.062;2023-03-16T01:52:21;11.43;;;5.40;;
17784;SDS011;9016;53.582;10.062;2023-03-16T01:54:52;9.70;;;4.90;;
17784;SDS011;9016;53.582;10.062;2023-03-16T01:57:24;8.97;;;4.40;;
17784;SDS011;9016;53.582;10.062;2023-03-16T01:59:58;10.33;;;4.80;;
17784;SDS011;9016;53.582;10.062;2023-03-16T02:02:34;7.83;;;4.37;;
17784;SDS011;9016;53.582;10.062;2023-03-16T02:05:06;8.17;;;4.77;;
17784;SDS011;9016;53.582;10.062;2023-03-16T02:07:39;10.23;;;4.57;;
17784;SDS011;9016;53.582;10.062;2023-03-16T02:10:11;13.57;;;4.70;;
17784;SDS011;9016;53.582;10.062;2023-03-16T02:12:42;9.70;;;4.23;;
17784;SDS011;9016;53.582;10.062;2023-03-16T02:15:12;8.20;;;3.70;;
17784;SDS011;9016;53.582;10.062;2023-03-16T02:17:42;9.63;;;4.40;;
17784;SDS011;9016;53.582;10.062;2023-03-16T02:20:13;6.63;;;4.20;;
17784;SDS011;9016;53.582;10.062;2023-03-16T02:22:52;6.97;;;3.73;;
17784;SDS011;9016;53.582;10.062;2023-03-16T02:25:21;7.17;;;4.13;;
17784;SDS011;9016;53.582;10.062;2023-03-16T02:27:52;9.27;;;4.10;;
17784;SDS011;9016;53.582;10.062;2023-03-16T02:30:29;8.87;;;4.37;;
17784;SDS011;9016;53.582;10.062;2023-03-16T02:32:57;9.43;;;3.83;;
17784;SDS011;9016;53.582;10.062;2023-03-16T02:35:25;7.17;;;4.17;;
17784;SDS011;9016;53.582;10.062;2023-03-16T02:37:53;9.93;;;4.17;;
17784;SDS011;9016;53.582;10.062;2023-03-16T02:40:22;9.57;;;4.37;;
17784;SDS011;9016;53.582;10.062;2023-03-16T02:42:55;13.13;;;4.13;;
17784;SDS011;9016;53.582;10.062;2023-03-16T02:45:32;6.30;;;3.50;;
17784;SDS011;9016;53.582;10.062;2023-03-16T02:48:06;7.03;;;3.47;;
17784;SDS011;9016;53.582;10.062;2023-03-16T02:50:46;10.10;;;4.33;;
17784;SDS011;9016;53.582;10.062;2023-03-16T02:53:16;7.27;;;3.60;;
17784;SDS011;9016;53.582;10.062;2023-03-16T02:55:44;8.33;;;3.37;;
17784;SDS011;9016;53.582;10.062;2023-03-16T02:58:12;8.33;;;3.60;;
17784;SDS011;9016;53.582;10.062;2023-03-16T03:00:42;6.90;;;3.10;;
17784;SDS011;9016;53.582;10.062;2023-03-16T03:03:11;7.63;;;3.50;;
17784;SDS011;9016;53.582;10.062;2023-03-16T03:05:40;8.80;;;3.77;;
17784;SDS011;9016;53.582;10.062;2023-03-16T03:08:08;7.57;;;3.70;;
17784;SDS011;9016;53.582;10.062;2023-03-16T03:10:35;9.57;;;3.27;;
17784;SDS011;9016;53.582;10.062;2023-03-16T03:13:04;7.53;;;3.13;;
17784;SDS011;9016;53.582;10.062;2023-03-16T03:15:33;6.13;;;3.57;;
17784;SDS011;9016;53.582;10.062;2023-03-16T03:18:02;7.50;;;3.67;;
17784;SDS011;9016;53.582;10.062;2023-03-16T03:20:30;7.87;;;3.70;;
17784;SDS011;9016;53.582;10.062;2023-03-16T03:22:59;6.00;;;3.47;;
17784;SDS011;9016;53.582;10.062;2023-03-16T03:25:29;6.77;;;3.57;;
17784;SDS011;9016;53.582;10.062;2023-03-16T03:28:00;9.03;;;3.90;;
17784;SDS011;9016;53.582;10.062;2023-03-16T03:30:30;7.13;;;3.30;;
17784;SDS011;9016;53.582;10.062;2023-03-16T03:32:59;7.83;;;3.60;;
17784;SDS011;9016;53.582;10.062;2023-03-16T03:35:29;7.13;;;3.63;;
17784;SDS011;9016;53.582;10.062;2023-03-16T03:37:57;5.53;;;3.20;;
17784;SDS011;9016;53.582;10.062;2023-03-16T03:40:25;10.57;;;3.50;;
17784;SDS011;9016;53.582;10.062;2023-03-16T03:42:53;8.17;;;3.50;;
17784;SDS011;9016;53.582;10.062;2023-03-16T03:45:22;7.70;;;3.10;;
17784;SDS011;9016;53.582;10.062;2023-03-16T03:47:50;9.47;;;3.27;;
17784;SDS011;9016;53.582;10.062;2023-03-16T03:50:17;8.77;;;4.07;;
17784;SDS011;9016;53.582;10.062;2023-03-16T03:52:48;8.67;;;3.90;;
17784;SDS011;9016;53.582;10.062;2023-03-16T03:55:16;5.53;;;3.47;;
17784;SDS011;9016;53.582;10.062;2023-03-16T03:57:44;9.80;;;3.63;;
17784;SDS011;9016;53.582;10.062;2023-03-16T04:00:13;10.90;;;3.70;;
17784;SDS011;9016;53.582;10.062;2023-03-16T04:02:42;6.80;;;3.80;;
17784;SDS011;9016;53.582;10.062;2023-03-16T04:05:10;6.63;;;3.17;;
17784;SDS011;9016;53.582;10.062;2023-03-16T04:07:38;9.67;;;3.90;;
17784;SDS011;9016;53.582;10.062;2023-03-16T04:10:08;7.83;;;3.90;;
17784;SDS011;9016;53.582;10.062;2023-03-16T04:12:37;10.57;;;4.00;;
17784;SDS011;9016;53.582;10.062;2023-03-16T04:15:05;7.53;;;3.80;;
17784;SDS011;9016;53.582;10.062;2023-03-16T04:17:34;6.10;;;3.67;;
17784;SDS011;9016;53.582;10.062;2023-03-16T04:20:02;8.93;;;3.70;;
17784;SDS011;9016;53.582;10.062;2023-03-16T04:22:35;9.37;;;3.63;;
17784;SDS011;9016;53.582;10.062;2023-03-16T04:25:03;6.27;;;3.53;;
17784;SDS011;9016;53.582;10.062;2023-03-16T04:27:33;10.03;;;3.73;;
17784;SDS011;9016;53.582;10.062;2023-03-16T04:30:02;7.77;;;3.30;;
17784;SDS011;9016;53.582;10.062;2023-03-16T04:32:31;7.90;;;3.30;;
17784;SDS011;9016;53.582;10.062;2023-03-16T04:34:59;10.77;;;3.60;;
17784;SDS011;9016;53.582;10.062;2023-03-16T04:37:27;8.20;;;3.33;;
17784;SDS011;9016;53.582;10.062;2023-03-16T04:39:55;6.80;;;3.60;;
17784;SDS011;9016;53.582;10.062;2023-03-16T04:42:23;7.23;;;3.40;;
17784;SDS011;9016;53.582;10.062;2023-03-16T04:44:52;7.27;;;3.43;;
17784;SDS011;9016;53.582;10.062;2023-03-16T04:47:21;11.37;;;4.03;;
17784;SDS011;9016;53.582;10.062;2023-03-16T04:49:49;9.37;;;3.90;;
17784;SDS011;9016;53.582;10.062;2023-03-16T04:52:17;8.33;;;3.80;;
17784;SDS011;9016;53.582;10.062;2023-03-16T04:54:46;6.67;;;3.37;;
17784;SDS011;9016;53.582;10.062;2023-03-16T04:57:14;7.70;;;3.70;;
17784;SDS011;9016;53.582;10.062;2023-03-16T04:59:44;11.10;;;3.47;;
17784;SDS011;9016;53.582;10.062;2023-03-16T05:02:13;7.10;;;3.83;;
17784;SDS011;9016;53.582;10.062;2023-03-16T05:04:42;7.83;;;3.37;;
17784;SDS011;9016;53.582;10.062;2023-03-16T05:07:10;8.67;;;3.67;;
17784;SDS011;9016;53.582;10.062;2023-03-16T05:09:38;5.70;;;3.50;;
17784;SDS011;9016;53.582;10.062;2023-03-16T05:12:07;6.57;;;3.60;;
17784;SDS011;9016;53.582;10.062;2023-03-16T05:14:36;5.30;;;3.23;;
17784;SDS011;9016;53.582;10.062;2023-03-16T05:17:04;7.43;;;3.90;;
17784;SDS011;9016;53.582;10.062;2023-03-16T05:19:34;9.70;;;4.03;;
17784;SDS011;9016;53.582;10.062;2023-03-16T05:22:02;7.80;;;3.83;;
17784;SDS011;9016;53.582;10.062;2023-03-16T05:24:30;7.73;;;3.53;;
17784;SDS011;9016;53.582;10.062;2023-03-16T05:26:58;7.87;;;3.40;;
17784;SDS011;9016;53.582;10.062;2023-03-16T05:29:28;21.80;;;13.07;;
17784;SDS011;9016;53.582;10.062;2023-03-16T05:31:57;8.87;;;4.60;;
17784;SDS011;9016;53.582;10.062;2023-03-16T05:34:25;6.20;;;3.27;;
17784;SDS011;9016;53.582;10.062;2023-03-16T05:36:55;5.40;;;3.23;;
17784;SDS011;9016;53.582;10.062;2023-03-16T05:39:23;7.20;;;3.40;;
17784;SDS011;9016;53.582;10.062;2023-03-16T05:41:51;7.30;;;3.47;;
17784;SDS011;9016;53.582;10.062;2023-03-16T05:44:20;8.53;;;3.90;;
17784;SDS011;9016;53.582;10.062;2023-03-16T05:46:48;6.43;;;3.33;;
17784;SDS011;9016;53.582;10.062;2023-03-16T05:49:17;8.57;;;3.40;;
17784;SDS011;9016;53.582;10.062;2023-03-16T05:51:44;10.30;;;3.50;;
17784;SDS011;9016;53.582;10.062;2023-03-16T05:54:14;7.60;;;3.93;;
17784;SDS011;9016;53.582;10.062;2023-03-16T05:56:42;9.27;;;3.43;;
17784;SDS011;9016;53.582;10.062;2023-03-16T05:59:10;7.27;;;3.53;;
17784;SDS011;9016;53.582;10.062;2023-03-16T06:01:38;6.87;;;3.67;;
17784;SDS011;9016;53.582;10.062;2023-03-16T06:04:06;7.07;;;3.53;;
17784;SDS011;9016;53.582;10.062;2023-03-16T06:06:35;7.27;;;3.83;;
17784;SDS011;9016;53.582;10.062;2023-03-16T06:09:03;6.97;;;3.60;;
17784;SDS011;9016;53.582;10.062;2023-03-16T06:11:33;7.83;;;3.60;;
17784;SDS011;9016;53.582;10.062;2023-03-16T06:14:01;8.83;;;3.83;;
17784;SDS011;9016;53.582;10.062;2023-03-16T06:16:31;8.83;;;3.40;;
17784;SDS011;9016;53.582;10.062;2023-03-16T06:18:59;7.47;;;3.43;;
17784;SDS011;9016;53.582;10.062;2023-03-16T06:21:28;6.63;;;3.30;;
17784;SDS011;9016;53.582;10.062;2023-03-16T06:23:56;8.63;;;3.50;;
17784;SDS011;9016;53.582;10.062;2023-03-16T06:26:24;6.63;;;3.60;;
17784;SDS011;9016;53.582;10.062;2023-03-16T06:28:54;7.17;;;3.50;;
17784;SDS011;9016;53.582;10.062;2023-03-16T06:31:22;9.07;;;3.10;;
17784;SDS011;9016;53.582;10.062;2023-03-16T06:33:50;9.53;;;3.53;;
17784;SDS011;9016;53.582;10.062;2023-03-16T06:36:18;8.47;;;3.63;;
17784;SDS011;9016;53.582;10.062;2023-03-16T06:38:46;10.90;;;4.10;;
17784;SDS011;9016;53.582;10.062;2023-03-16T06:41:15;6.77;;;3.73;;
17784;SDS011;9016;53.582;10.062;2023-03-16T06:43:43;6.97;;;3.07;;
17784;SDS011;9016;53.582;10.062;2023-03-16T06:46:13;4.13;;;2.80;;
17784;SDS011;9016;53.582;10.062;2023-03-16T06:48:41;6.70;;;3.40;;
17784;SDS011;9016;53.582;10.062;2023-03-16T06:51:09;6.50;;;3.23;;
17784;SDS011;9016;53.582;10.062;2023-03-16T06:53:37;6.07;;;3.10;;
17784;SDS011;9016;53.582;10.062;2023-03-16T06:56:06;5.87;;;3.23;;
17784;SDS011;9016;53.582;10.062;2023-03-16T06:58:34;7.63;;;3.13;;
17784;SDS011;9016;53.582;10.062;2023-03-16T07:01:03;7.63;;;3.77;;
17784;SDS011;9016;53.582;10.062;2023-03-16T07:03:33;6.63;;;3.10;;
17784;SDS011;9016;53.582;10.062;2023-03-16T07:06:01;7.97;;;3.43;;
17784;SDS011;9016;53.582;10.062;2023-03-16T07:08:29;8.13;;;3.40;;
17784;SDS011;9016;53.582;10.062;2023-03-16T07:10:57;8.20;;;3.03;;
17784;SDS011;9016;53.582;10.062;2023-03-16T07:13:25;6.97;;;3.40;;
17784;SDS011;9016;53.582;10.062;2023-03-16T07:15:53;9.57;;;3.70;;
17784;SDS011;9016;53.582;10.062;2023-03-16T07:18:21;7.30;;;4.20;;
17784;SDS011;9016;53.582;10.062;2023-03-16T07:20:53;8.90;;;4.03;;
17784;SDS011;9016;53.582;10.062;2023-03-16T07:23:21;7.97;;;3.90;;
17784;SDS011;9016;53.582;10.062;2023-03-16T07:25:50;8.23;;;3.63;;
17784;SDS011;9016;53.582;10.062;2023-03-16T07:28:18;7.40;;;3.53;;
17784;SDS011;9016;53.582;10.062;2023-03-16T07:30:46;8.30;;;3.80;;
17784;SDS011;9016;53.582;10.062;2023-03-16T07:33:28;8.57;;;3.90;;
17784;SDS011;9016;53.582;10.062;2023-03-16T07:35:59;7.47;;;4.17;;
17784;SDS011;9016;53.582;10.062;2023-03-16T07:38:29;6.23;;;3.40;;
17784;SDS011;9016;53.582;10.062;2023-03-16T07:40:58;6.30;;;3.20;;
17784;SDS011;9016;53.582;10.062;2023-03-16T07:43:26;8.50;;;3.10;;
17784;SDS011;9016;53.582;10.062;2023-03-16T07:45:55;7.83;;;3.40;;
17784;SDS011;9016;53.582;10.062;2023-03-16T07:48:23;6.87;;;3.50;;
17784;SDS011;9016;53.582;10.062;2023-03-16T07:50:52;6.80;;;3.40;;
17784;SDS011;9016;53.582;10.062;2023-03-16T07:53:21;6.27;;;3.30;;
17784;SDS011;9016;53.582;10.062;2023-03-16T07:55:49;4.37;;;2.80;;
17784;SDS011;9016;53.582;10.062;2023-03-16T07:58:17;9.03;;;3.40;;
17784;SDS011;9016;53.582;10.062;2023-03-16T08:00:45;8.77;;;3.50;;
17784;SDS011;9016;53.582;10.062;2023-03-16T08:03:13;9.87;;;4.00;;
17784;SDS011;9016;53.582;10.062;2023-03-16T08:05:41;6.93;;;2.90;;
17784;SDS011;9016;53.582;10.062;2023-03-16T08:08:09;10.20;;;3.53;;
17784;SDS011;9016;53.582;10.062;2023-03-16T08:10:38;8.33;;;3.80;;
17784;SDS011;9016;53.582;10.062;2023-03-16T08:13:06;9.20;;;3.80;;
17784;SDS011;9016;53.582;10.062;2023-03-16T08:15:34;13.23;;;3.70;;
17784;SDS011;9016;53.582;10.062;2023-03-16T08:18:02;9.70;;;3.80;;
17784;SDS011;9016;53.582;10.062;2023-03-16T08:20:32;9.10;;;4.07;;
17784;SDS011;9016;53.582;10.062;2023-03-16T08:23:00;8.27;;;4.07;;
17784;SDS011;9016;53.582;10.062;2023-03-16T08:25:31;6.17;;;3.77;;
17784;SDS011;9016;53.582;10.062;2023-03-16T08:28:00;7.33;;;3.80;;
17784;SDS011;9016;53.582;10.062;2023-03-16T08:30:29;10.27;;;3.87;;
17784;SDS011;9016;53.582;10.062;2023-03-16T08:32:58;7.77;;;4.00;;
17784;SDS011;9016;53.582;10.062;2023-03-16T08:35:28;8.60;;;3.87;;
17784;SDS011;9016;53.582;10.062;2023-03-16T08:37:56;7.60;;;3.83;;
17784;SDS011;9016;53.582;10.062;2023-03-16T08:40:25;9.73;;;4.40;;
17784;SDS011;9016;53.582;10.062;2023-03-16T08:42:55;7.93;;;3.60;;
17784;SDS011;9016;53.582;10.062;2023-03-16T08:45:24;6.60;;;3.30;;
17784;SDS011;9016;53.582;10.062;2023-03-16T08:47:53;7.40;;;3.73;;
17784;SDS011;9016;53.582;10.062;2023-03-16T08:50:22;9.17;;;4.10;;
17784;SDS011;9016;53.582;10.062;2023-03-16T08:52:50;7.53;;;3.53;;
17784;SDS011;9016;53.582;10.062;2023-03-16T08:55:18;7.53;;;3.37;;
17784;SDS011;9016;53.582;10.062;2023-03-16T08:57:46;7.40;;;3.10;;
17784;SDS011;9016;53.582;10.062;2023-03-16T09:00:15;7.00;;;3.30;;
17784;SDS011;9016;53.582;10.062;2023-03-16T09:02:47;6.33;;;3.50;;
17784;SDS011;9016;53.582;10.062;2023-03-16T09:05:15;6.67;;;3.10;;
17784;SDS011;9016;53.582;10.062;2023-03-16T09:07:43;9.77;;;3.77;;
17784;SDS011;9016;53.582;10.062;2023-03-16T09:10:14;5.73;;;3.50;;
17784;SDS011;9016;53.582;10.062;2023-03-16T09:12:45;7.67;;;3.50;;
17784;SDS011;9016;53.582;10.062;2023-03-16T09:15:14;6.83;;;3.10;;
17784;SDS011;9016;53.582;10.062;2023-03-16T09:17:42;8.50;;;3.00;;
17784;SDS011;9016;53.582;10.062;2023-03-16T09:20:13;7.20;;;3.17;;
17784;SDS011;9016;53.582;10.062;2023-03-16T09:22:51;6.30;;;3.00;;
17784;SDS011;9016;53.582;10.062;2023-03-16T09:25:19;7.03;;;3.23;;
17784;SDS011;9016;53.582;10.062;2023-03-16T09:27:50;6.83;;;2.67;;
17784;SDS011;9016;53.582;10.062;2023-03-16T09:30:19;7.00;;;3.17;;
17784;SDS011;9016;53.582;10.062;2023-03-16T09:32:47;6.30;;;2.43;;
17784;SDS011;9016;53.582;10.062;2023-03-16T09:35:17;5.93;;;2.77;;
17784;SDS011;9016;53.582;10.062;2023-03-16T09:37:45;6.93;;;2.60;;
17784;SDS011;9016;53.582;10.062;2023-03-16T09:40:31;6.63;;;2.63;;
17784;SDS011;9016;53.582;10.062;2023-03-16T09:45:58;6.33;;;2.80;;
17784;SDS011;9016;53.582;10.062;2023-03-16T09:48:33;6.60;;;2.60;;
17784;SDS011;9016;53.582;10.062;2023-03-16T09:51:06;7.40;;;2.70;;
17784;SDS011;9016;53.582;10.062;2023-03-16T09:53:51;6.57;;;2.27;;
17784;SDS011;9016;53.582;10.062;2023-03-16T09:56:26;7.30;;;2.60;;
17784;SDS011;9016;53.582;10.062;2023-03-16T09:58:58;6.33;;;2.67;;
17784;SDS011;9016;53.582;10.062;2023-03-16T10:01:32;7.97;;;2.30;;
17784;SDS011;9016;53.582;10.062;2023-03-16T10:04:08;4.80;;;2.20;;
17784;SDS011;9016;53.582;10.062;2023-03-16T10:06:50;6.87;;;2.33;;
17784;SDS011;9016;53.582;10.062;2023-03-16T10:09:27;4.40;;;2.40;;
17784;SDS011;9016;53.582;10.062;2023-03-16T10:12:01;4.50;;;2.30;;
17784;SDS011;9016;53.582;10.062;2023-03-16T10:14:36;5.83;;;2.60;;
17784;SDS011;9016;53.582;10.062;2023-03-16T10:17:12;5.20;;;2.07;;
17784;SDS011;9016;53.582;10.062;2023-03-16T10:19:45;4.23;;;1.80;;
17784;SDS011;9016;53.582;10.062;2023-03-16T10:22:20;5.50;;;2.20;;
17784;SDS011;9016;53.582;10.062;2023-03-16T10:24:56;4.40;;;2.60;;
17784;SDS011;9016;53.582;10.062;2023-03-16T10:27:31;4.70;;;2.40;;
17784;SDS011;9016;53.582;10.062;2023-03-16T10:30:05;4.33;;;2.20;;
17784;SDS011;9016;53.582;10.062;2023-03-16T10:32:46;3.27;;;2.17;;
17784;SDS011;9016;53.582;10.062;2023-03-16T10:35:33;4.93;;;2.13;;
17784;SDS011;9016;53.582;10.062;2023-03-16T10:38:23;5.03;;;1.90;;
17784;SDS011;9016;53.582;10.062;2023-03-16T10:40:55;3.33;;;1.80;;
17784;SDS011;9016;53.582;10.062;2023-03-16T10:43:24;4.93;;;1.87;;
17784;SDS011;9016;53.582;10.062;2023-03-16T10:45:56;5.23;;;2.17;;
17784;SDS011;9016;53.582;10.062;2023-03-16T10:48:29;4.83;;;1.90;;
17784;SDS011;9016;53.582;10.062;2023-03-16T10:50:59;4.33;;;1.90;;
17784;SDS011;9016;53.582;10.062;2023-03-16T10:53:36;5.47;;;1.80;;
17784;SDS011;9016;53.582;10.062;2023-03-16T10:56:08;5.07;;;1.70;;
17784;SDS011;9016;53.582;10.062;2023-03-16T10:58:41;3.17;;;1.70;;
17784;SDS011;9016;53.582;10.062;2023-03-16T11:01:20;4.63;;;1.50;;
17784;SDS011;9016;53.582;10.062;2023-03-16T11:03:52;9.37;;;2.13;;
17784;SDS011;9016;53.582;10.062;2023-03-16T11:06:23;3.13;;;1.83;;
17784;SDS011;9016;53.582;10.062;2023-03-16T11:09:02;3.53;;;1.80;;
17784;SDS011;9016;53.582;10.062;2023-03-16T11:11:34;4.53;;;1.60;;
17784;SDS011;9016;53.582;10.062;2023-03-16T11:14:10;4.00;;;1.83;;
17784;SDS011;9016;53.582;10.062;2023-03-16T11:16:41;3.60;;;1.57;;
17784;SDS011;9016;53.582;10.062;2023-03-16T11:19:13;5.83;;;2.00;;
17784;SDS011;9016;53.582;10.062;2023-03-16T11:21:46;5.17;;;1.70;;
17784;SDS011;9016;53.582;10.062;2023-03-16T11:24:23;4.17;;;1.90;;
17784;SDS011;9016;53.582;10.062;2023-03-16T11:26:59;5.87;;;2.03;;
17784;SDS011;9016;53.582;10.062;2023-03-16T11:29:35;4.27;;;1.60;;
17784;SDS011;9016;53.582;10.062;2023-03-16T11:32:11;5.07;;;2.10;;
17784;SDS011;9016;53.582;10.062;2023-03-16T11:34:46;5.77;;;2.00;;
17784;SDS011;9016;53.582;10.062;2023-03-16T11:37:17;5.23;;;1.93;;
17784;SDS011;9016;53.582;10.062;2023-03-16T11:39:59;5.13;;;2.10;;
17784;SDS011;9016;53.582;10.062;2023-03-16T11:42:41;4.13;;;1.70;;
17784;SDS011;9016;53.582;10.062;2023-03-16T11:45:22;3.80;;;1.70;;
17784;SDS011;9016;53.582;10.062;2023-03-16T11:48:05;3.40;;;1.77;;
17784;SDS011;9016;53.582;10.062;2023-03-16T11:51:01;2.50;;;1.50;;
17784;SDS011;9016;53.582;10.062;2023-03-16T11:53:46;4.10;;;1.60;;
17784;SDS011;9016;53.582;10.062;2023-03-16T11:56:23;4.90;;;1.77;;
17784;SDS011;9016;53.582;10.062;2023-03-16T11:59:04;3.37;;;1.83;;
17784;SDS011;9016;53.582;10.062;2023-03-16T12:01:54;3.40;;;1.90;;
17784;SDS011;9016;53.582;10.062;2023-03-16T12:04:39;3.03;;;1.70;;
17784;SDS011;9016;53.582;10.062;2023-03-16T12:07:25;4.93;;;1.73;;
17784;SDS011;9016;53.582;10.062;2023-03-16T12:10:08;4.00;;;1.83;;
17784;SDS011;9016;53.582;10.062;2023-03-16T12:12:54;2.73;;;1.80;;
17784;SDS011;9016;53.582;10.062;2023-03-16T12:15:31;3.23;;;2.20;;
17784;SDS011;9016;53.582;10.062;2023-03-16T12:18:09;2.47;;;1.50;;
17784;SDS011;9016;53.582;10.062;2023-03-16T12:20:46;4.43;;;2.00;;
17784;SDS011;9016;53.582;10.062;2023-03-16T12:23:19;3.70;;;1.77;;
17784;SDS011;9016;53.582;10.062;2023-03-16T12:26:01;3.53;;;1.40;;
17784;SDS011;9016;53.582;10.062;2023-03-16T12:28:31;4.43;;;1.30;;
17784;SDS011;9016;53.582;10.062;2023-03-16T12:31:06;3.27;;;1.50;;
17784;SDS011;9016;53.582;10.062;2023-03-16T12:33:42;3.90;;;1.40;;
17784;SDS011;9016;53.582;10.062;2023-03-16T12:39:20;4.83;;;1.90;;
17784;SDS011;9016;53.582;10.062;2023-03-16T12:41:59;5.27;;;1.63;;
17784;SDS011;9016;53.582;10.062;2023-03-16T12:44:38;3.23;;;1.40;;
17784;SDS011;9016;53.582;10.062;2023-03-16T12:47:16;2.80;;;1.60;;
17784;SDS011;9016;53.582;10.062;2023-03-16T12:49:49;5.27;;;1.93;;
17784;SDS011;9016;53.582;10.062;2023-03-16T12:52:18;3.73;;;1.90;;
17784;SDS011;9016;53.582;10.062;2023-03-16T12:54:50;3.00;;;1.67;;
17784;SDS011;9016;53.582;10.062;2023-03-16T12:57:22;2.40;;;1.60;;
17784;SDS011;9016;53.582;10.062;2023-03-16T12:59:56;6.57;;;1.60;;
17784;SDS011;9016;53.582;10.062;2023-03-16T13:02:28;4.23;;;1.60;;
17784;SDS011;9016;53.582;10.062;2023-03-16T13:04:58;4.60;;;1.60;;
17784;SDS011;9016;53.582;10.062;2023-03-16T13:07:28;3.03;;;1.60;;
17784;SDS011;9016;53.582;10.062;2023-03-16T13:09:59;3.83;;;1.60;;
17784;SDS011;9016;53.582;10.062;2023-03-16T13:12:35;5.83;;;1.53;;
17784;SDS011;9016;53.582;10.062;2023-03-16T13:18:19;4.97;;;1.70;;
17784;SDS011;9016;53.582;10.062;2023-03-16T13:20:51;2.97;;;1.40;;
17784;SDS011;9016;53.582;10.062;2023-03-16T13:23:45;3.40;;;1.40;;
17784;SDS011;9016;53.582;10.062;2023-03-16T13:26:25;6.93;;;1.73;;
17784;SDS011;9016;53.582;10.062;2023-03-16T13:29:20;3.00;;;1.93;;
17784;SDS011;9016;53.582;10.062;2023-03-16T13:31:52;2.37;;;1.37;;
17784;SDS011;9016;53.582;10.062;2023-03-16T13:34:25;3.87;;;1.83;;
17784;SDS011;9016;53.582;10.062;2023-03-16T13:36:57;2.40;;;1.60;;
17784;SDS011;9016;53.582;10.062;2023-03-16T13:39:27;2.70;;;1.40;;
17784;SDS011;9016;53.582;10.062;2023-03-16T13:41:57;3.63;;;1.30;;
17784;SDS011;9016;53.582;10.062;2023-03-16T13:44:29;3.37;;;1.50;;
17784;SDS011;9016;53.582;10.062;2023-03-16T13:47:04;3.70;;;1.30;;
17784;SDS011;9016;53.582;10.062;2023-03-16T13:49:41;3.37;;;1.53;;
17784;SDS011;9016;53.582;10.062;2023-03-16T13:52:12;2.27;;;1.30;;
17784;SDS011;9016;53.582;10.062;2023-03-16T13:54:53;2.57;;;1.50;;
17784;SDS011;9016;53.582;10.062;2023-03-16T13:57:23;3.67;;;1.80;;
17784;SDS011;9016;53.582;10.062;2023-03-16T14:00:00;2.10;;;1.50;;
17784;SDS011;9016;53.582;10.062;2023-03-16T14:02:34;2.73;;;1.47;;
17784;SDS011;9016;53.582;10.062;2023-03-16T14:05:08;1.70;;;1.20;;
17784;SDS011;9016;53.582;10.062;2023-03-16T14:07:38;2.20;;;1.20;;
17784;SDS011;9016;53.582;10.062;2023-03-16T14:10:07;2.90;;;1.50;;
17784;SDS011;9016;53.582;10.062;2023-03-16T14:12:37;3.23;;;1.33;;
17784;SDS011;9016;53.582;10.062;2023-03-16T14:15:06;3.93;;;1.47;;
17784;SDS011;9016;53.582;10.062;2023-03-16T14:17:36;8.57;;;1.50;;
17784;SDS011;9016;53.582;10.062;2023-03-16T14:20:05;1.23;;;1.10;;
17784;SDS011;9016;53.582;10.062;2023-03-16T14:22:41;3.83;;;1.40;;
17784;SDS011;9016;53.582;10.062;2023-03-16T14:25:09;1.90;;;1.30;;
17784;SDS011;9016;53.582;10.062;2023-03-16T14:27:47;3.90;;;1.53;;
17784;SDS011;9016;53.582;10.062;2023-03-16T14:30:23;2.03;;;1.30;;
17784;SDS011;9016;53.582;10.062;2023-03-16T14:32:55;3.77;;;1.40;;
17784;SDS011;9016;53.582;10.062;2023-03-16T14:35:26;3.70;;;1.60;;
17784;SDS011;9016;53.582;10.062;2023-03-16T14:40:52;3.30;;;1.47;;
17784;SDS011;9016;53.582;10.062;2023-03-16T14:43:23;2.70;;;1.40;;
17784;SDS011;9016;53.582;10.062;2023-03-16T14:45:58;3.50;;;1.50;;
17784;SDS011;9016;53.582;10.062;2023-03-16T14:48:29;2.07;;;1.40;;
17784;SDS011;9016;53.582;10.062;2023-03-16T14:50:58;2.73;;;1.50;;
17784;SDS011;9016;53.582;10.062;2023-03-16T14:53:27;4.43;;;2.73;;
17784;SDS011;9016;53.582;10.062;2023-03-16T14:55:56;3.07;;;1.57;;
17784;SDS011;9016;53.582;10.062;2023-03-16T14:58:25;1.90;;;1.60;;
17784;SDS011;9016;53.582;10.062;2023-03-16T15:00:55;2.87;;;1.87;;
17784;SDS011;9016;53.582;10.062;2023-03-16T15:03:30;4.20;;;1.50;;
17784;SDS011;9016;53.582;10.062;2023-03-16T15:06:01;2.93;;;1.27;;
17784;SDS011;9016;53.582;10.062;2023-03-16T15:08:32;2.90;;;1.70;;
17784;SDS011;9016;53.582;10.062;2023-03-16T15:11:08;4.50;;;2.17;;
17784;SDS011;9016;53.582;10.062;2023-03-16T15:13:37;3.23;;;2.50;;
17784;SDS011;9016;53.582;10.062;2023-03-16T15:16:29;4.63;;;2.40;;
17784;SDS011;9016;53.582;10.062;2023-03-16T15:18:59;3.00;;;1.47;;
17784;SDS011;9016;53.582;10.062;2023-03-16T15:21:27;3.33;;;1.40;;
17784;SDS011;9016;53.582;10.062;2023-03-16T15:24:01;2.23;;;1.73;;